• Join FlightAware (Why Join?)
  • Login
  • US Flag 
12:41PM EDT


 

Airport Tracker/Info


-or-


 

Live Flight TrackerFlight Track Log ✈ NSH301 ✈ 24-Jul-2013 ✈ KFDK - KPIT

Flight Track Log - Related Links

Times and Time Zones

All times are in EDT time to prevent confusion due to time zone crossing. See the NSH301 flight status page for this flight to view local times or setup timezone preferences in your user account.

Time Position Orientation Groundspeed Altitude Reporting Facility
EDT Latitude Longitude Course Direction KTS MPH feet Rate Location/Type
07:21AM 39.3500 -77.3667 264° West 198 228 2,500  Level Potomac TRACON
07:22AM 39.4000 -77.2833 52° Northeast 228 262 2,500 -480 Level Potomac TRACON
07:23AM 39.4333 -77.3333 311° West 188 216 1,600 -480 Descending Potomac TRACON
07:24AM 39.4500 -77.3667 303° West 144 166 1,600  Level Potomac TRACON
07:26AM 39.4772 -77.1631 264° West  Level FlightAware Approximate
07:26AM 39.4500 -77.3667 90° East 144 166 1,600  Level Potomac TRACON
07:28AM 39.4500 -77.3667 90° East 144 166 1,600  Level Potomac TRACON
07:30AM 39.4500 -77.3667 90° East 144 166 1,600  Level Potomac TRACON
07:32AM 39.4500 -77.3667 90° East 144 166 1,600  Level Potomac TRACON
07:34AM 39.4500 -77.3667 90° East 144 166 1,600  Level Potomac TRACON
07:35AM 39.4500 -77.3667 90° East 144 166 1,600  Level Potomac TRACON
07:37AM 39.4500 -77.3667 90° East 144 166 1,600  Level Potomac TRACON
07:39AM 39.4500 -77.3667 90° East 144 166 1,600  Level Potomac TRACON
07:41AM 39.4500 -77.3667 90° East 144 166 1,600  Level Potomac TRACON
07:43AM 39.4500 -77.3667 90° East 144 166 1,600  Level Potomac TRACON
07:45AM 39.4500 -77.5337 270° West  Level FlightAware Approximate
07:52AM 39.6332 -78.2114 292° West  Level FlightAware Approximate
07:53AM 39.6623 -78.3078 291° West  Level FlightAware Approximate
07:54AM 39.6913 -78.4043 291° West  Level FlightAware Approximate
07:55AM 39.7203 -78.5008 291° West  Level FlightAware Approximate
07:56AM 39.7492 -78.5974 291° West  Level FlightAware Approximate
07:57AM 39.7780 -78.6940 291° West  Level FlightAware Approximate
07:58AM 39.8068 -78.7908 291° West  Level FlightAware Approximate
07:59AM 39.8355 -78.8876 291° West  Level FlightAware Approximate
08:00AM 39.8641 -78.9845 291° West  Level FlightAware Approximate
08:01AM 39.8914 -79.0820 288° West  Level FlightAware Approximate
08:02AM 39.9160 -79.1808 288° West  Level FlightAware Approximate
08:03AM 39.9450 -79.2776 291° West  Level FlightAware Approximate
08:04AM 39.9799 -79.3699 311° West  Level FlightAware Approximate
08:05AM 40.0268 -79.4537 303° West  Level FlightAware Approximate
08:06AM 40.0762 -79.5353 309° West  Level FlightAware Approximate
08:07AM 40.1253 -79.6173 303° West  Level FlightAware Approximate
08:08AM 40.1789 -79.6941 314° West  Level FlightAware Approximate
08:09AM 40.2127 -79.7880 294° West  Level FlightAware Approximate
08:10AM 40.2625 -79.8688 311° West  Level FlightAware Approximate
08:11AM 40.3131 -79.9495 308° West  Level FlightAware Approximate
08:12AM 40.3624 -80.0317 308° West  Level FlightAware Approximate
08:13AM 40.4117 -80.1139 308° West  Level FlightAware Approximate
08:14AM 40.4647 -80.1918 315° West  Level FlightAware Approximate
08:15AM 40.4833 -80.2167 315° West  Level FlightAware Approximate